Time;durP1;ratioP1;P1;durP2;ratioP2;P2;SDS_P1;SDS_P2;PMS_P1;PMS_P2;Temp;Humidity;BMP_temperature;BMP_pressure;BME280_temperature;BME280_humidity;BME280_pressure;Samples;Min_cycle;Max_cycle;Signal;HPM_P1;HPM_P2
2022/12/02 00:00:42;;;;;;;;;;;3.70;86.50;;;;;;4994319;28;19913;-81
2022/12/02 00:03:10;;;;;;;;;;;3.70;86.50;;;;;;4976921;28;19905;-82
2022/12/02 00:05:35;;;;;;;;;;;3.70;86.40;;;;;;4994414;28;19910;-82
2022/12/02 00:08:24;;;;;;;;;;;3.60;86.30;;;;;;4976701;28;20267;-82
2022/12/02 00:10:50;;;;;;;;;;;3.60;86.50;;;;;;4964089;28;19906;-82
2022/12/02 00:13:26;;;;;;;;;;;3.60;86.70;;;;;;4976663;28;19964;-82
2022/12/02 00:15:59;;;;;;;;;;;3.70;86.80;;;;;;4976878;28;20345;-82
2022/12/02 00:18:25;;;;;;;;;;;3.60;86.80;;;;;;4994063;28;19913;-82
2022/12/02 00:20:51;;;;;;;;;;;3.50;87.00;;;;;;4976802;28;19906;-81
2022/12/02 00:23:16;;;;;;;;;;;3.50;87.90;;;;;;4993928;28;19906;-81
2022/12/02 00:25:44;;;;;;;;;;;3.50;87.00;;;;;;4994082;28;20000;-82
2022/12/02 00:28:10;;;;;;;;;;;3.50;87.20;;;;;;4976628;28;20250;-81
2022/12/02 00:30:35;;;;;;;;;;;3.50;87.40;;;;;;4994108;28;20032;-82
2022/12/02 00:33:01;;;;;;;;;;;3.50;87.50;;;;;;4994082;28;19914;-82
2022/12/02 00:35:26;;;;;;;;;;;3.50;87.50;;;;;;4976544;28;20378;-83
2022/12/02 00:37:52;;;;;;;;;;;3.50;87.60;;;;;;4994113;28;19960;-83
2022/12/02 00:40:18;;;;;;;;;;;3.50;88.00;;;;;;4994080;28;19996;-83
2022/12/02 00:42:43;;;;;;;;;;;3.50;88.10;;;;;;4976423;28;19906;-82
2022/12/02 00:47:54;;;;;;;;;;;3.60;88.00;;;;;;4994248;28;19912;-82
2022/12/02 00:50:20;;;;;;;;;;;3.60;87.80;;;;;;4994015;28;19905;-81
2022/12/02 00:52:45;;;;;;;;;;;3.60;87.70;;;;;;4993974;28;19925;-81
2022/12/02 00:55:10;;;;;;;;;;;3.70;87.70;;;;;;4994672;28;19992;-81
2022/12/02 00:57:36;;;;;;;;;;;3.70;87.70;;;;;;4997780;28;19976;-82
2022/12/02 01:00:04;;;;;;;;;;;3.80;87.60;;;;;;4980135;28;19959;-81
2022/12/02 01:02:29;;;;;;;;;;;3.80;87.40;;;;;;4997655;28;19959;-82
2022/12/02 01:04:55;;;;;;;;;;;3.80;87.50;;;;;;4980064;28;19948;-82
2022/12/02 01:07:20;;;;;;;;;;;3.70;87.50;;;;;;4997555;28;20345;-82
2022/12/02 01:09:46;;;;;;;;;;;3.70;87.50;;;;;;4997558;28;19906;-82
2022/12/02 01:12:11;;;;;;;;;;;3.70;87.60;;;;;;4997323;28;19910;-81
2022/12/02 01:14:37;;;;;;;;;;;3.70;87.70;;;;;;4979879;28;19916;-82
2022/12/02 01:17:02;;;;;;;;;;;3.60;88.20;;;;;;4979968;28;20379;-82
2022/12/02 01:19:28;;;;;;;;;;;3.70;88.00;;;;;;4979728;28;19906;-82
2022/12/02 01:21:53;;;;;;;;;;;3.70;88.10;;;;;;4997263;28;19957;-81
2022/12/02 01:24:19;;;;;;;;;;;3.70;88.20;;;;;;4997244;28;19917;-82
2022/12/02 01:26:44;;;;;;;;;;;3.60;88.40;;;;;;4979645;28;19945;-81
2022/12/02 01:29:09;;;;;;;;;;;3.60;88.60;;;;;;4979574;28;19917;-82
2022/12/02 01:31:35;;;;;;;;;;;3.50;88.80;;;;;;4998276;28;19913;-81
2022/12/02 01:34:00;;;;;;;;;;;3.50;88.90;;;;;;5003200;28;19941;-81
2022/12/02 01:36:26;;;;;;;;;;;3.60;89.00;;;;;;5001038;28;20331;-81
2022/12/02 01:38:51;;;;;;;;;;;3.50;89.50;;;;;;5006389;28;19913;-81
2022/12/02 01:41:17;;;;;;;;;;;3.50;89.70;;;;;;4979472;28;19909;-81
2022/12/02 01:43:43;;;;;;;;;;;3.50;89.70;;;;;;4979374;28;19909;-81
2022/12/02 01:46:08;;;;;;;;;;;3.60;89.50;;;;;;4996881;28;19905;-81
2022/12/02 01:48:34;;;;;;;;;;;3.60;89.40;;;;;;4996736;28;19906;-81
2022/12/02 01:51:01;;;;;;;;;;;3.60;89.20;;;;;;4979138;28;19960;-81
2022/12/02 01:53:26;;;;;;;;;;;3.60;89.10;;;;;;4978988;28;19913;-81
2022/12/02 01:55:52;;;;;;;;;;;3.60;89.40;;;;;;4979006;28;20004;-81
2022/12/02 01:58:19;;;;;;;;;;;3.50;89.70;;;;;;4996548;28;20342;-81
2022/12/02 02:00:45;;;;;;;;;;;3.60;89.60;;;;;;4979186;28;20012;-81
2022/12/02 02:03:10;;;;;;;;;;;3.60;89.70;;;;;;4978923;28;19963;-83
2022/12/02 02:05:36;;;;;;;;;;;3.60;89.60;;;;;;4979011;28;19933;-80
2022/12/02 02:08:06;;;;;;;;;;;3.60;89.20;;;;;;4978021;28;19912;-80
2022/12/02 02:10:32;;;;;;;;;;;3.70;89.20;;;;;;4996298;28;19906;-81
2022/12/02 02:12:57;;;;;;;;;;;3.60;88.90;;;;;;4996190;28;19914;-80
2022/12/02 02:15:23;;;;;;;;;;;3.60;89.00;;;;;;4978726;28;19976;-81
2022/12/02 02:17:49;;;;;;;;;;;3.60;89.10;;;;;;4978792;28;19913;-81
2022/12/02 02:20:16;;;;;;;;;;;3.60;89.10;;;;;;4996119;28;20540;-81
2022/12/02 02:22:44;;;;;;;;;;;3.70;89.00;;;;;;4996343;28;19960;-80
2022/12/02 02:25:11;;;;;;;;;;;3.70;88.90;;;;;;4996777;28;20462;-83
2022/12/02 02:27:36;;;;;;;;;;;3.70;88.60;;;;;;4979561;28;20342;-83
2022/12/02 02:30:02;;;;;;;;;;;3.70;88.50;;;;;;4997095;28;19906;-83
2022/12/02 02:32:28;;;;;;;;;;;3.70;88.60;;;;;;4979129;28;20035;-83
2022/12/02 02:34:53;;;;;;;;;;;3.70;88.50;;;;;;4996412;28;19906;-83
2022/12/02 02:37:19;;;;;;;;;;;3.80;88.40;;;;;;4996423;28;19905;-83
2022/12/02 02:39:44;;;;;;;;;;;3.80;88.40;;;;;;4996235;28;19906;-80
2022/12/02 02:42:10;;;;;;;;;;;3.80;88.40;;;;;;4996568;28;19989;-80
2022/12/02 02:44:35;;;;;;;;;;;3.80;88.30;;;;;;4996042;28;19945;-81
2022/12/02 02:47:01;;;;;;;;;;;3.80;88.10;;;;;;4996153;28;19913;-80
2022/12/02 02:49:26;;;;;;;;;;;3.80;87.90;;;;;;4978458;28;19905;-79
2022/12/02 02:51:52;;;;;;;;;;;3.80;87.70;;;;;;4995925;28;19909;-80
2022/12/02 02:54:18;;;;;;;;;;;3.70;87.50;;;;;;4996051;28;19905;-80
2022/12/02 02:56:43;;;;;;;;;;;3.70;87.50;;;;;;4978475;28;19913;-82
2022/12/02 02:59:12;;;;;;;;;;;3.70;87.60;;;;;;4995940;28;19906;-82
2022/12/02 03:01:37;;;;;;;;;;;3.70;87.70;;;;;;4995808;28;19906;-82
2022/12/02 03:04:07;;;;;;;;;;;3.70;87.80;;;;;;4995589;28;19912;-79
2022/12/02 03:06:33;;;;;;;;;;;3.70;87.70;;;;;;4995432;28;19906;-81
2022/12/02 03:08:59;;;;;;;;;;;3.70;87.50;;;;;;4995195;28;20286;-82
2022/12/02 03:11:25;;;;;;;;;;;3.70;87.30;;;;;;4995282;28;19905;-82
2022/12/02 03:13:51;;;;;;;;;;;3.70;87.30;;;;;;4995287;28;19921;-80
2022/12/02 03:16:18;;;;;;;;;;;3.70;87.30;;;;;;4995160;28;19906;-82
2022/12/02 03:18:45;;;;;;;;;;;3.70;87.10;;;;;;4995134;28;19906;-81
2022/12/02 03:21:12;;;;;;;;;;;3.60;86.70;;;;;;4995102;28;19960;-79
2022/12/02 03:23:38;;;;;;;;;;;3.60;87.00;;;;;;4994945;28;19914;-79
2022/12/02 03:26:04;;;;;;;;;;;3.60;87.10;;;;;;4995189;28;19932;-79
2022/12/02 03:28:30;;;;;;;;;;;3.60;87.10;;;;;;4977688;28;20358;-81
2022/12/02 03:30:55;;;;;;;;;;;3.60;87.10;;;;;;4995114;28;19913;-82
2022/12/02 03:33:21;;;;;;;;;;;3.60;87.10;;;;;;4995247;28;19913;-82
2022/12/02 03:35:47;;;;;;;;;;;3.60;87.10;;;;;;4977996;28;20354;-83
2022/12/02 03:38:13;;;;;;;;;;;3.60;87.00;;;;;;4977747;28;19913;-81
2022/12/02 03:40:38;;;;;;;;;;;3.60;86.90;;;;;;4995553;28;19913;-82
2022/12/02 03:43:04;;;;;;;;;;;3.50;86.90;;;;;;4978153;28;20351;-82
2022/12/02 03:45:29;;;;;;;;;;;3.50;87.40;;;;;;4995092;28;19949;-83
2022/12/02 03:47:55;;;;;;;;;;;3.50;87.50;;;;;;4977408;28;20035;-82
2022/12/02 03:50:21;;;;;;;;;;;3.40;87.60;;;;;;4977762;28;19996;-82
2022/12/02 03:52:47;;;;;;;;;;;3.40;87.90;;;;;;4995126;28;19914;-83
2022/12/02 03:55:12;;;;;;;;;;;3.40;87.80;;;;;;4977681;28;19906;-83
2022/12/02 03:57:39;;;;;;;;;;;3.30;87.80;;;;;;4977558;28;20278;-83
2022/12/02 04:00:05;;;;;;;;;;;3.20;87.90;;;;;;4994657;28;19906;-83
2022/12/02 04:02:31;;;;;;;;;;;3.20;88.20;;;;;;4994717;28;19925;-82
2022/12/02 04:04:56;;;;;;;;;;;3.20;88.50;;;;;;4994584;28;19913;-83
2022/12/02 04:07:22;;;;;;;;;;;3.10;88.80;;;;;;4994550;28;19905;-83
2022/12/02 04:09:47;;;;;;;;;;;3.10;89.00;;;;;;4994561;28;19905;-84
2022/12/02 04:12:13;;;;;;;;;;;3.00;88.70;;;;;;4976970;28;20040;-81
2022/12/02 04:14:38;;;;;;;;;;;3.10;89.00;;;;;;4976881;28;19906;-81
2022/12/02 04:17:04;;;;;;;;;;;3.10;88.80;;;;;;4976790;28;19906;-81
2022/12/02 04:19:29;;;;;;;;;;;3.10;88.50;;;;;;4976664;28;19941;-81
2022/12/02 04:21:55;;;;;;;;;;;3.10;88.40;;;;;;4994694;28;20400;-81
2022/12/02 04:24:20;;;;;;;;;;;3.00;88.80;;;;;;4976555;28;19914;-80
2022/12/02 04:26:45;;;;;;;;;;;3.00;89.30;;;;;;4976794;28;19906;-83
2022/12/02 04:29:11;;;;;;;;;;;3.00;89.20;;;;;;4994726;28;19956;-84
2022/12/02 04:31:36;;;;;;;;;;;3.00;88.80;;;;;;4997412;28;19913;-83
2022/12/02 04:34:02;;;;;;;;;;;3.10;88.90;;;;;;4980949;28;19910;-83
2022/12/02 04:36:27;;;;;;;;;;;3.10;89.00;;;;;;4980739;28;19937;-83
2022/12/02 04:38:53;;;;;;;;;;;3.10;89.20;;;;;;4980836;28;19905;-83
2022/12/02 04:41:18;;;;;;;;;;;3.10;89.90;;;;;;4998288;28;19913;-83
2022/12/02 04:43:44;;;;;;;;;;;3.10;89.00;;;;;;4980823;28;19931;-83
2022/12/02 04:46:09;;;;;;;;;;;3.20;88.70;;;;;;4998043;28;19992;-82
2022/12/02 04:48:35;;;;;;;;;;;3.10;88.40;;;;;;4998039;28;19916;-83
2022/12/02 04:51:00;;;;;;;;;;;3.10;88.50;;;;;;4997964;28;19905;-82
2022/12/02 04:53:26;;;;;;;;;;;3.20;88.40;;;;;;4980224;28;19913;-82
2022/12/02 04:55:51;;;;;;;;;;;3.20;88.30;;;;;;4997630;28;19905;-83
2022/12/02 04:58:16;;;;;;;;;;;3.10;88.10;;;;;;4980113;28;19906;-83
2022/12/02 05:00:42;;;;;;;;;;;3.10;88.10;;;;;;4980133;28;20441;-83
2022/12/02 05:03:07;;;;;;;;;;;3.10;88.10;;;;;;4980018;28;19910;-83
2022/12/02 05:05:33;;;;;;;;;;;3.10;88.30;;;;;;4980249;28;20321;-84
2022/12/02 05:07:58;;;;;;;;;;;3.20;88.20;;;;;;4997543;28;19906;-84
2022/12/02 05:10:24;;;;;;;;;;;3.20;88.00;;;;;;4997331;28;19906;-84
2022/12/02 05:12:49;;;;;;;;;;;3.20;87.90;;;;;;4980016;28;19965;-81
2022/12/02 05:15:15;;;;;;;;;;;3.20;87.80;;;;;;4997387;28;19910;-84
2022/12/02 05:17:40;;;;;;;;;;;3.10;87.70;;;;;;4980149;28;19905;-83
2022/12/02 05:20:06;;;;;;;;;;;3.10;87.90;;;;;;4997962;28;19953;-83
2022/12/02 05:22:32;;;;;;;;;;;3.20;88.00;;;;;;4997503;28;20060;-84
2022/12/02 05:24:57;;;;;;;;;;;3.20;88.00;;;;;;4997338;28;19979;-84
2022/12/02 05:27:23;;;;;;;;;;;3.30;87.90;;;;;;4997339;28;19921;-84
2022/12/02 05:29:48;;;;;;;;;;;3.30;87.70;;;;;;4997725;28;19912;-84
2022/12/02 05:32:13;;;;;;;;;;;3.30;87.60;;;;;;4980052;28;19914;-84
2022/12/02 05:34:39;;;;;;;;;;;3.30;87.40;;;;;;4997137;28;19906;-85
2022/12/02 05:37:04;;;;;;;;;;;3.30;87.10;;;;;;4997105;28;19910;-83
2022/12/02 05:39:30;;;;;;;;;;;3.30;86.90;;;;;;4997027;28;19905;-83
2022/12/02 05:42:05;;;;;;;;;;;3.30;86.90;;;;;;4995643;28;20444;-84
2022/12/02 05:44:32;;;;;;;;;;;3.30;86.90;;;;;;4979316;28;20019;-84
2022/12/02 05:47:00;;;;;;;;;;;3.30;87.00;;;;;;4997066;28;19912;-84
2022/12/02 05:49:25;;;;;;;;;;;3.30;87.10;;;;;;4996949;28;20289;-84
2022/12/02 05:51:58;;;;;;;;;;;3.40;87.20;;;;;;4979580;28;19909;-85
2022/12/02 05:54:24;;;;;;;;;;;3.40;87.10;;;;;;4997012;28;19945;-85
2022/12/02 05:56:49;;;;;;;;;;;3.40;86.90;;;;;;4996832;28;19960;-84
2022/12/02 05:59:16;;;;;;;;;;;3.40;86.70;;;;;;4996840;28;19913;-84
2022/12/02 06:01:43;;;;;;;;;;;3.40;86.50;;;;;;4997043;28;19987;-83
2022/12/02 06:04:12;;;;;;;;;;;3.40;86.50;;;;;;4982298;28;19916;-83
2022/12/02 06:06:38;;;;;;;;;;;3.40;86.30;;;;;;5001354;28;19952;-84
2022/12/02 06:09:10;;;;;;;;;;;3.30;86.40;;;;;;5018501;28;19890;-84
2022/12/02 06:11:37;;;;;;;;;;;3.40;86.30;;;;;;5014309;28;19967;-81
2022/12/02 06:14:13;;;;;;;;;;;3.30;86.30;;;;;;4979471;28;19909;-82
2022/12/02 06:16:39;;;;;;;;;;;3.30;86.30;;;;;;4981120;28;19912;-81
2022/12/02 06:19:12;;;;;;;;;;;3.30;86.40;;;;;;4980531;28;19910;-82
2022/12/02 06:21:38;;;;;;;;;;;3.30;86.10;;;;;;4980733;28;19906;-81
2022/12/02 06:24:07;;;;;;;;;;;3.30;86.20;;;;;;4998132;28;19996;-82
2022/12/02 06:26:33;;;;;;;;;;;3.30;86.30;;;;;;4996220;28;19959;-82
2022/12/02 06:29:00;;;;;;;;;;;3.20;86.40;;;;;;4978980;28;19905;-82
2022/12/02 06:31:36;;;;;;;;;;;3.10;86.80;;;;;;4978454;28;19906;-82
2022/12/02 06:34:11;;;;;;;;;;;3.10;87.10;;;;;;4980339;28;19963;-82
2022/12/02 06:36:36;;;;;;;;;;;3.20;87.20;;;;;;4979799;28;19928;-82
2022/12/02 06:39:08;;;;;;;;;;;3.30;87.40;;;;;;4980244;28;19996;-82
2022/12/02 06:41:36;;;;;;;;;;;3.30;87.10;;;;;;4979874;28;19945;-81
2022/12/02 06:47:24;;;;;;;;;;;3.20;86.70;;;;;;4996916;28;20286;-81
2022/12/02 06:49:50;;;;;;;;;;;3.30;87.00;;;;;;4979864;28;19905;-81
2022/12/02 06:52:20;;;;;;;;;;;3.30;86.70;;;;;;4979716;28;20227;-81
2022/12/02 06:54:45;;;;;;;;;;;3.30;86.60;;;;;;4979177;28;19910;-83
2022/12/02 06:57:11;;;;;;;;;;;3.40;86.70;;;;;;4979090;28;19906;-83
2022/12/02 06:59:37;;;;;;;;;;;3.40;86.70;;;;;;4979380;28;19905;-82
2022/12/02 07:02:12;;;;;;;;;;;3.40;86.60;;;;;;4979509;28;19913;-82
2022/12/02 07:04:46;;;;;;;;;;;3.30;86.60;;;;;;4979009;28;19910;-82
2022/12/02 07:07:19;;;;;;;;;;;3.30;87.00;;;;;;4979127;28;19905;-83
2022/12/02 07:09:50;;;;;;;;;;;3.40;87.20;;;;;;4996374;28;20302;-81
2022/12/02 07:12:21;;;;;;;;;;;3.40;87.10;;;;;;4979013;28;20015;-81
2022/12/02 07:14:46;;;;;;;;;;;3.50;87.40;;;;;;4980819;28;19909;-82
2022/12/02 07:17:19;;;;;;;;;;;3.50;86.90;;;;;;4999740;28;20408;-80
2022/12/02 07:19:47;;;;;;;;;;;3.50;86.50;;;;;;4984139;28;19906;-83
2022/12/02 07:22:14;;;;;;;;;;;3.50;86.50;;;;;;4983788;28;20345;-82
2022/12/02 07:24:41;;;;;;;;;;;3.60;86.50;;;;;;4983287;28;20000;-82
2022/12/02 07:27:17;;;;;;;;;;;3.60;86.30;;;;;;4984137;28;19932;-81
2022/12/02 07:29:43;;;;;;;;;;;3.60;86.20;;;;;;5002504;28;19948;-82
2022/12/02 07:32:11;;;;;;;;;;;3.60;86.20;;;;;;4982969;28;20258;-82
2022/12/02 07:34:37;;;;;;;;;;;3.60;86.40;;;;;;4982536;28;19910;-81
2022/12/02 07:37:05;;;;;;;;;;;3.60;86.70;;;;;;4982545;28;19912;-82
2022/12/02 07:39:31;;;;;;;;;;;3.60;86.70;;;;;;4983695;28;19906;-81
2022/12/02 07:41:57;;;;;;;;;;;3.60;86.70;;;;;;4983097;28;19913;-83
2022/12/02 07:44:22;;;;;;;;;;;3.60;86.60;;;;;;4983215;28;19906;-82
2022/12/02 07:46:48;;;;;;;;;;;3.60;86.50;;;;;;4982911;28;19906;-79
2022/12/02 07:49:16;;;;;;;;;;;3.50;86.50;;;;;;4983151;28;19982;-81
2022/12/02 07:51:45;;;;;;;;;;;3.50;86.80;;;;;;5000475;28;19910;-81
2022/12/02 07:54:11;;;;;;;;;;;3.50;86.70;;;;;;4984783;28;19905;-81
2022/12/02 07:56:36;;;;;;;;;;;3.50;87.00;;;;;;5003077;28;19969;-81
2022/12/02 07:59:02;;;;;;;;;;;3.40;87.10;;;;;;4985347;28;19905;-81
2022/12/02 08:01:28;;;;;;;;;;;3.50;87.50;;;;;;4982039;28;19955;-81
2022/12/02 08:03:54;;;;;;;;;;;3.50;87.70;;;;;;4980410;28;20045;-81
2022/12/02 08:06:19;;;;;;;;;;;3.60;87.60;;;;;;4995897;28;19965;-82
2022/12/02 08:08:45;;;;;;;;;;;3.70;87.70;;;;;;4978320;28;19909;-81
2022/12/02 08:11:10;;;;;;;;;;;3.70;87.50;;;;;;4978065;28;19917;-80
2022/12/02 08:13:36;;;;;;;;;;;3.70;87.30;;;;;;4978950;28;19940;-80
2022/12/02 08:16:01;;;;;;;;;;;3.70;87.40;;;;;;4995903;28;19906;-81
2022/12/02 08:18:27;;;;;;;;;;;3.70;87.70;;;;;;4996260;28;20282;-80
2022/12/02 08:20:52;;;;;;;;;;;3.70;87.60;;;;;;4995445;28;19910;-81
2022/12/02 08:23:18;;;;;;;;;;;3.70;87.50;;;;;;4995302;28;19913;-80
2022/12/02 08:25:43;;;;;;;;;;;3.70;87.40;;;;;;4995792;28;19921;-81
2022/12/02 08:28:09;;;;;;;;;;;3.70;87.60;;;;;;4977458;28;19976;-80
2022/12/02 08:30:34;;;;;;;;;;;3.70;87.60;;;;;;4997051;28;19933;-82
2022/12/02 08:33:00;;;;;;;;;;;3.70;87.50;;;;;;4997369;28;19914;-81
2022/12/02 08:35:25;;;;;;;;;;;3.80;87.60;;;;;;4979614;28;19917;-81
2022/12/02 08:37:51;;;;;;;;;;;3.70;87.60;;;;;;4996106;28;20345;-81
2022/12/02 08:40:17;;;;;;;;;;;3.70;87.30;;;;;;4979243;28;19996;-82
2022/12/02 08:42:42;;;;;;;;;;;3.80;87.30;;;;;;4994537;28;19906;-81
2022/12/02 08:45:08;;;;;;;;;;;3.80;87.20;;;;;;4994162;28;19906;-80
2022/12/02 08:47:33;;;;;;;;;;;3.80;87.30;;;;;;4994442;28;20380;-81
2022/12/02 08:49:59;;;;;;;;;;;3.80;87.10;;;;;;4977482;28;19906;-81
2022/12/02 08:52:24;;;;;;;;;;;3.80;86.90;;;;;;5044778;23;19930;-81
2022/12/02 08:54:50;;;;;;;;;;;3.80;86.90;;;;;;4934989;29;19970;-81
2022/12/02 08:57:15;;;;;;;;;;;3.80;86.80;;;;;;4937873;29;19958;-82
2022/12/02 08:59:41;;;;;;;;;;;3.80;86.70;;;;;;4934864;29;19906;-81
2022/12/02 09:05:02;;;;;;;;;;;3.80;87.00;;;;;;4796499;23;20024;-82
2022/12/02 09:07:27;;;;;;;;;;;3.80;87.10;;;;;;4957880;28;20438;-81
2022/12/02 09:09:53;;;;;;;;;;;3.90;87.20;;;;;;4957672;28;19942;-82
2022/12/02 09:12:19;;;;;;;;;;;3.90;87.10;;;;;;4957877;28;19910;-81
2022/12/02 09:14:44;;;;;;;;;;;3.90;87.00;;;;;;4975089;28;19910;-81
2022/12/02 09:17:10;;;;;;;;;;;4.00;86.80;;;;;;4959591;28;19913;-82
2022/12/02 09:19:35;;;;;;;;;;;4.00;86.80;;;;;;4961394;28;19949;-82
2022/12/02 09:22:01;;;;;;;;;;;4.10;87.00;;;;;;4961327;28;19913;-82
2022/12/02 09:24:26;;;;;;;;;;;4.10;87.10;;;;;;4979504;28;20343;-82
2022/12/02 09:26:52;;;;;;;;;;;4.10;87.10;;;;;;4980754;28;19914;-82
2022/12/02 09:29:17;;;;;;;;;;;4.30;86.90;;;;;;4979048;28;19961;-81
2022/12/02 09:31:43;;;;;;;;;;;4.30;86.70;;;;;;4978409;28;19910;-83
2022/12/02 09:34:08;;;;;;;;;;;4.30;86.50;;;;;;4979332;28;19906;-79
2022/12/02 09:36:34;;;;;;;;;;;4.30;86.40;;;;;;4979597;28;19906;-83
2022/12/02 09:38:59;;;;;;;;;;;4.40;86.30;;;;;;4961059;28;19906;-80
2022/12/02 09:41:25;;;;;;;;;;;4.40;86.20;;;;;;4959798;28;19906;-80
2022/12/02 09:43:50;;;;;;;;;;;4.50;86.10;;;;;;4977496;28;20276;-80
2022/12/02 09:46:16;;;;;;;;;;;4.50;86.00;;;;;;4977329;28;19910;-80
2022/12/02 09:48:41;;;;;;;;;;;4.50;85.60;;;;;;4977333;28;20005;-80
2022/12/02 09:51:08;;;;;;;;;;;4.50;85.60;;;;;;4959778;28;19957;-80
2022/12/02 09:53:36;;;;;;;;;;;4.50;85.50;;;;;;4977373;28;19914;-80
2022/12/02 09:56:01;;;;;;;;;;;4.50;85.40;;;;;;4977160;28;20001;-81
2022/12/02 09:58:27;;;;;;;;;;;4.50;85.60;;;;;;4977150;28;20000;-83
2022/12/02 10:00:52;;;;;;;;;;;4.50;85.70;;;;;;4960903;28;19909;-82
2022/12/02 10:03:21;;;;;;;;;;;4.50;85.50;;;;;;4959419;28;19927;-81
2022/12/02 10:05:46;;;;;;;;;;;4.50;85.50;;;;;;4976685;28;20016;-82
2022/12/02 10:08:15;;;;;;;;;;;4.60;85.50;;;;;;4976721;28;19956;-81
2022/12/02 10:10:41;;;;;;;;;;;4.70;85.60;;;;;;4959259;28;20338;-82
2022/12/02 10:13:14;;;;;;;;;;;4.70;84.70;;;;;;4976586;28;19972;-82
2022/12/02 10:15:40;;;;;;;;;;;4.70;84.70;;;;;;4959127;28;20311;-83
2022/12/02 10:18:12;;;;;;;;;;;4.60;84.50;;;;;;4976268;28;19910;-81
2022/12/02 10:20:38;;;;;;;;;;;4.50;84.90;;;;;;4959344;28;19910;-83
2022/12/02 10:23:10;;;;;;;;;;;4.60;85.10;;;;;;4959476;28;19906;-82
2022/12/02 10:25:36;;;;;;;;;;;4.60;85.20;;;;;;4959115;28;19993;-83
2022/12/02 10:28:02;;;;;;;;;;;4.70;85.00;;;;;;4975567;28;19906;-83
2022/12/02 10:30:28;;;;;;;;;;;4.80;84.60;;;;;;4976673;28;19945;-81
2022/12/02 10:32:58;;;;;;;;;;;4.80;84.50;;;;;;4976632;28;19921;-81
2022/12/02 10:35:24;;;;;;;;;;;4.90;85.10;;;;;;4976344;28;19906;-82
2022/12/02 10:37:49;;;;;;;;;;;4.90;83.60;;;;;;4958871;28;19906;-82
2022/12/02 10:40:16;;;;;;;;;;;4.90;83.70;;;;;;4976244;28;20351;-81
2022/12/02 10:42:42;;;;;;;;;;;4.90;83.50;;;;;;4976162;28;19913;-84
2022/12/02 10:45:18;;;;;;;;;;;4.90;82.60;;;;;;4976315;28;19922;-84
2022/12/02 10:47:44;;;;;;;;;;;4.80;82.80;;;;;;4959078;28;19955;-83
2022/12/02 10:50:21;;;;;;;;;;;4.60;82.60;;;;;;4958743;28;19975;-83
2022/12/02 10:52:51;;;;;;;;;;;4.60;83.00;;;;;;4958349;28;20011;-82
2022/12/02 10:55:17;;;;;;;;;;;4.60;83.20;;;;;;4958282;28;20263;-82
2022/12/02 10:57:43;;;;;;;;;;;4.70;83.00;;;;;;4976193;28;19906;-83
2022/12/02 11:00:17;;;;;;;;;;;4.80;82.80;;;;;;4958637;28;19953;-84
2022/12/02 11:02:45;;;;;;;;;;;4.80;82.80;;;;;;4960242;28;19910;-83
2022/12/02 11:05:13;;;;;;;;;;;4.90;82.70;;;;;;4975731;28;19976;-82
2022/12/02 11:07:38;;;;;;;;;;;5.00;82.20;;;;;;4975838;28;19960;-82
2022/12/02 11:10:04;;;;;;;;;;;5.00;81.40;;;;;;4958587;28;19992;-81
2022/12/02 11:12:55;;;;;;;;;;;5.00;80.90;;;;;;4959011;28;19910;-83
2022/12/02 11:15:35;;;;;;;;;;;5.00;81.00;;;;;;4977037;28;19906;-83
2022/12/02 11:18:00;;;;;;;;;;;5.10;81.00;;;;;;4960080;28;19968;-84
2022/12/02 11:20:29;;;;;;;;;;;5.00;80.60;;;;;;4959193;28;19909;-84
2022/12/02 11:22:58;;;;;;;;;;;5.00;79.50;;;;;;4959199;28;19906;-83
2022/12/02 11:25:41;;;;;;;;;;;5.00;80.00;;;;;;4976487;28;19906;-84
2022/12/02 11:28:25;;;;;;;;;;;5.10;80.10;;;;;;4976341;28;19910;-84
2022/12/02 11:31:12;;;;;;;;;;;5.10;81.00;;;;;;4958180;28;19906;-85
2022/12/02 11:33:47;;;;;;;;;;;5.10;80.20;;;;;;4975554;28;19914;-84
2022/12/02 11:36:14;;;;;;;;;;;5.10;80.00;;;;;;4958190;28;19929;-84
2022/12/02 11:38:47;;;;;;;;;;;5.00;80.60;;;;;;4957872;28;20354;-84
2022/12/02 11:41:13;;;;;;;;;;;5.00;81.00;;;;;;4975220;28;20298;-84
2022/12/02 11:43:40;;;;;;;;;;;4.90;81.20;;;;;;4957862;28;19914;-84
2022/12/02 11:46:05;;;;;;;;;;;4.90;81.50;;;;;;4975383;28;19913;-83
2022/12/02 11:48:31;;;;;;;;;;;4.90;81.60;;;;;;4974933;28;19906;-82
2022/12/02 11:50:57;;;;;;;;;;;4.80;81.90;;;;;;4974419;28;20364;-82
2022/12/02 11:53:23;;;;;;;;;;;4.70;82.20;;;;;;4974292;28;19961;-82
2022/12/02 11:55:49;;;;;;;;;;;4.70;82.40;;;;;;4957740;28;19944;-84
2022/12/02 11:58:24;;;;;;;;;;;4.70;82.40;;;;;;4957236;28;19914;-82
2022/12/02 12:00:59;;;;;;;;;;;4.70;82.60;;;;;;4957410;28;20271;-83
2022/12/02 12:03:24;;;;;;;;;;;4.80;82.60;;;;;;4974543;28;19913;-82
2022/12/02 12:06:08;;;;;;;;;;;4.80;82.60;;;;;;4974268;28;19914;-84
2022/12/02 12:08:35;;;;;;;;;;;4.80;82.30;;;;;;4958173;28;20056;-82
2022/12/02 12:11:14;;;;;;;;;;;4.80;82.50;;;;;;4957819;28;19933;-82
2022/12/02 12:13:58;;;;;;;;;;;4.70;82.60;;;;;;4974990;28;19922;-81
2022/12/02 12:16:24;;;;;;;;;;;4.80;82.80;;;;;;4983013;28;19906;-80
2022/12/02 12:18:49;;;;;;;;;;;4.80;82.80;;;;;;4974450;28;20373;-81
2022/12/02 12:21:30;;;;;;;;;;;4.80;82.90;;;;;;4974615;28;19906;-81
2022/12/02 12:24:15;;;;;;;;;;;4.80;82.90;;;;;;4966914;28;19941;-80
2022/12/02 12:26:40;;;;;;;;;;;4.70;83.20;;;;;;4985880;28;19906;-81
2022/12/02 12:29:06;;;;;;;;;;;4.70;83.90;;;;;;4958442;28;19916;-81
2022/12/02 12:31:31;;;;;;;;;;;4.60;84.20;;;;;;4975178;28;20034;-83
2022/12/02 12:33:57;;;;;;;;;;;4.60;84.40;;;;;;4975146;28;19953;-81
2022/12/02 12:36:23;;;;;;;;;;;4.50;84.70;;;;;;4957889;28;19928;-83
2022/12/02 12:38:48;;;;;;;;;;;4.50;84.80;;;;;;4975470;28;19906;-81
2022/12/02 12:41:14;;;;;;;;;;;4.60;84.70;;;;;;4957700;28;19906;-80
2022/12/02 12:43:40;;;;;;;;;;;4.60;84.80;;;;;;4974711;28;19960;-80
2022/12/02 12:46:06;;;;;;;;;;;4.50;85.20;;;;;;4957513;28;19953;-83
2022/12/02 12:48:31;;;;;;;;;;;4.50;85.40;;;;;;4957749;28;19906;-81
2022/12/02 12:50:57;;;;;;;;;;;4.50;85.30;;;;;;4957912;28;19953;-83
2022/12/02 12:53:22;;;;;;;;;;;4.50;85.50;;;;;;4962004;28;19969;-83
2022/12/02 12:55:48;;;;;;;;;;;4.60;85.20;;;;;;4960778;28;19906;-83
2022/12/02 12:58:14;;;;;;;;;;;4.50;85.30;;;;;;4978362;28;19913;-82
2022/12/02 13:00:39;;;;;;;;;;;4.50;85.20;;;;;;4960414;28;19906;-81
2022/12/02 13:03:05;;;;;;;;;;;4.50;85.40;;;;;;4960594;28;19906;-81
2022/12/02 13:05:30;;;;;;;;;;;4.50;85.20;;;;;;4960471;28;19922;-81
2022/12/02 13:07:56;;;;;;;;;;;4.50;85.20;;;;;;4960632;28;20000;-81
2022/12/02 13:10:21;;;;;;;;;;;4.50;85.10;;;;;;4978422;28;19913;-82
2022/12/02 13:12:47;;;;;;;;;;;4.50;85.10;;;;;;4977798;28;19921;-83
2022/12/02 13:15:13;;;;;;;;;;;4.50;85.00;;;;;;4978325;28;19906;-81
2022/12/02 13:17:38;;;;;;;;;;;4.50;84.90;;;;;;4978721;28;19929;-83
2022/12/02 13:20:04;;;;;;;;;;;4.40;84.80;;;;;;4978126;28;20009;-82
2022/12/02 13:22:30;;;;;;;;;;;4.50;84.90;;;;;;4960575;28;20413;-82
2022/12/02 13:24:55;;;;;;;;;;;4.40;84.80;;;;;;4977834;28;19906;-82
2022/12/02 13:27:20;;;;;;;;;;;4.40;85.00;;;;;;4960196;28;20022;-82
2022/12/02 13:29:46;;;;;;;;;;;4.40;85.20;;;;;;4960661;28;20011;-82
2022/12/02 13:32:11;;;;;;;;;;;4.40;85.30;;;;;;4978358;28;19926;-82
2022/12/02 13:34:37;;;;;;;;;;;4.40;85.60;;;;;;4978002;28;20289;-81
2022/12/02 13:37:02;;;;;;;;;;;4.30;86.00;;;;;;4960789;28;19906;-81
2022/12/02 13:39:28;;;;;;;;;;;4.30;86.00;;;;;;4960299;28;20339;-82
2022/12/02 13:41:53;;;;;;;;;;;4.40;86.10;;;;;;4960194;28;20405;-83
2022/12/02 13:44:19;;;;;;;;;;;4.40;85.90;;;;;;4977398;28;19907;-82
2022/12/02 13:46:44;;;;;;;;;;;4.40;85.80;;;;;;4977076;28;19906;-83
2022/12/02 13:49:10;;;;;;;;;;;4.40;86.50;;;;;;4977782;28;19910;-83
2022/12/02 13:51:35;;;;;;;;;;;4.40;85.60;;;;;;4977657;28;19906;-83
2022/12/02 13:54:01;;;;;;;;;;;4.30;86.00;;;;;;4960019;28;19942;-81
2022/12/02 13:56:26;;;;;;;;;;;4.30;86.40;;;;;;4977222;28;19914;-84
2022/12/02 13:58:52;;;;;;;;;;;4.30;86.20;;;;;;4977336;28;19909;-83
2022/12/02 14:01:17;;;;;;;;;;;4.30;86.30;;;;;;4977367;28;19906;-82
2022/12/02 14:03:43;;;;;;;;;;;4.30;86.20;;;;;;4955483;28;19918;-81
2022/12/02 14:06:08;;;;;;;;;;;4.30;86.40;;;;;;4957446;29;20327;-82
2022/12/02 14:08:34;;;;;;;;;;;4.30;86.60;;;;;;4955860;29;19993;-81
2022/12/02 14:11:02;;;;;;;;;;;4.30;87.10;;;;;;4956498;29;19907;-81
2022/12/02 14:13:27;;;;;;;;;;;4.30;87.40;;;;;;4956407;29;19914;-81
2022/12/02 14:15:53;;;;;;;;;;;4.20;87.20;;;;;;4956593;29;19914;-81
2022/12/02 14:18:18;;;;;;;;;;;4.20;87.20;;;;;;4957508;29;19969;-82
2022/12/02 14:20:44;;;;;;;;;;;4.30;87.30;;;;;;4957607;29;19906;-83
2022/12/02 14:23:11;;;;;;;;;;;4.30;87.20;;;;;;4957808;29;20313;-83
2022/12/02 14:25:36;;;;;;;;;;;4.30;87.40;;;;;;4956235;29;19907;-81
2022/12/02 14:28:02;;;;;;;;;;;4.30;87.20;;;;;;4958044;29;19970;-81
2022/12/02 14:30:28;;;;;;;;;;;4.30;87.20;;;;;;4957602;29;19907;-83
2022/12/02 14:32:53;;;;;;;;;;;4.30;86.90;;;;;;4956101;29;20112;-83
2022/12/02 14:35:19;;;;;;;;;;;4.40;86.90;;;;;;4957440;29;19919;-84
2022/12/02 14:37:44;;;;;;;;;;;4.40;87.10;;;;;;4955798;29;19961;-84